Logan Cache Airport
KLGU : now visible

Airfield :











YOU CAN JOIN US ON...

 
LOGIN :

Register | Disclaimer

   EN    FR    IT 

 









Legend :    VFR   Marginal VFR   IFR   Intensive IFR   Very Intensive IFR
Visi :
Ceiling :
>= 8 km
>= 3000ft
5 to 8 km
1000 to 3000 ft
1500m to 5 km
500 to 1000 ft
800 to 1500m
200 to 500 ft
< 800m
< 200 ft
Symbols :   Thunderstorms  Fog  Heavy snow  Heavy precipitations  Wind > 20 kt







- Airport Elevation : 4457 ft


KLGU - Logan Cache

CURRENT METAR :
  • 200851Z AUTO 00000KT 10SM OVC075 07/06 A2964 RMK AO2 SLP013 T00720056 58008

EXPIRED METARs :
  • 200751Z AUTO 03003KT 10SM FEW060 BKN100 07/05 A2966 RMK AO2 SLP017 T00720050
  • 200651Z AUTO 01006KT 10SM FEW050 07/05 A2966 RMK AO2 SLP021 T00670050 401500044

TAF KLGU
Valid from the 20 at 06:00 until the 21 at 06:00 UTC


200549Z 2006/2106 16007KT P6SM VCSH BKN050 BKN080
FM201900 21007KT P6SM VCSH SCT030 BKN060
FM210300 24008KT P6SM VCSH BKN050
KZLC FIR / North America



MET'MAP, your aeronautical weather chart ! - Copyright ORBIFLY December 2007 - Disclaimer

ORBIFLY MET'MAP TEAM :

Programming & Development : Alexandra Zaïnal
Concept & Development : Baudouin d'Aumeries
Co-Development & Prog : Marc-Olivier Méhu
Technical & hardware support : Manuel Goepfert

Contact : metmap@orbifly.com




SOURCES & CREDITS :

   NOAA       Earth
Advisory